Valley Peak, Santa Cruz Island Reserve, California Weather observations

Data are for 10 minute period ending at time listed.
 Day   Time   Solar   Ave.   Ave.  Ave.  Vector  Max.   Baro.   Total    
  of    of     Rad.   Air    Rel.  Wind   Wind   Wind  Press.  Precip.   
Year   Day            Temp.  Hum.  Speed  Dir.   Gust                    
2016   (PST)  Kw/m2    F      %     mph   deg.    mph    mb.     in.     
-------------------------------------------------------------------------
 119   21:40   0.00   54.1    65    7.0   341    13.3   963.8    0.00 
 119   21:50   0.00   55.5    62    8.6   331    17.5   963.8    0.00 
 119   22:00   0.00   56.9    58    9.8   345    15.9   963.8    0.00 
 119   22:10   0.00   56.8    59    8.8   343    15.7   963.9    0.00 
 119   22:20   0.00   55.3    62    7.0    15    10.7   963.9    0.00 
 119   22:30   0.00   53.6    68    9.7    21    11.8   963.9    0.00 
 119   22:40   0.00   51.5    75   10.6    26    12.8   963.9    0.00 
 119   22:50   0.00   51.1    77   10.3    26    12.9   963.9    0.00 
 119   23:00   0.00   51.3    77    9.3    19    10.8   964.0    0.00 
 119   23:10   0.00   51.5    77    9.9    10    12.7   964.0    0.00 
 119   23:20   0.00   51.2    78   11.6     9    15.7   964.0    0.00 
 119   23:30   0.00   51.2    78   10.8    12    13.5   964.1    0.00 
 119   23:40   0.00   50.9    80   10.1    16    12.2   964.3    0.00 
 119   23:50   0.00   51.0    79   10.4    10    13.9   964.4    0.00 
 120    0:00   0.00   51.5    78    8.8     9    13.4   964.4    0.00 
 120    0:10   0.00   52.0    76    9.0     3    12.6   964.4    0.00 
 120    0:20   0.00   54.8    68    6.5   347    11.6   964.4    0.00 
 120    0:30   0.00   54.5    68    4.2   342     6.7   964.6    0.00 
 120    0:40   0.00   55.5    66    4.6   202     6.9   964.5    0.00 
 120    0:50   0.00   52.9    74    8.0   152    12.2   964.5    0.00 
 120    1:00   0.00   51.9    77    6.0   148     7.9   964.6    0.00 
 120    1:10   0.00   51.2    81    5.9   152     9.3   964.5    0.00 
 120    1:20   0.00   50.8    83    6.3   185     7.5   964.6    0.00 
 120    1:30   0.00   49.6    88    6.3   186    10.0   964.7    0.00 
 120    1:40   0.00   49.5    89    5.9   152    12.2   964.7    0.00 
 120    1:50   0.00   49.4    90    5.6   146    10.0   964.7    0.00 
 120    2:00   0.00   49.2    91    5.8   177     9.6   964.8    0.00 
 120    2:10   0.00   48.8    92    6.8   198    10.4   964.8    0.00 
 120    2:20   0.00   48.3    93    8.7   228    12.1   964.9    0.00 
 120    2:30   0.00   47.8    94    8.1   230    11.2   964.9    0.00 
 120    2:40   0.00   48.0    95    6.0   221     8.8   964.9    0.00 
 120    2:50   0.00   48.6    93    6.1   204     7.4   964.9    0.00 
 120    3:00   0.00   49.4    91    6.2   172     7.5   964.9    0.00 
 120    3:10   0.00   49.0    90    5.8   214     8.5   965.0    0.00 
 120    3:20   0.00   48.5    93    4.0   190     5.5   965.0    0.00 
 120    3:30   0.00   48.7    92    5.5   145     8.1   965.0    0.00 
 120    3:40   0.00   48.7    93    6.1   142     8.3   964.9    0.00 
 120    3:50   0.00   48.7    93    6.6   167     9.3   964.8    0.00 
 120    4:00   0.00   48.7    93    8.5   149    11.4   964.9    0.00 
 120    4:10   0.00   48.7    94    9.3   144    13.2   964.8    0.00 
 120    4:20   0.00   48.7    94    9.5   145    13.1   964.9    0.00 
 120    4:30   0.00   48.6    94    9.7   148    13.1   965.0    0.00 
 120    4:40   0.00   48.4    94   10.7   151    13.4   965.1    0.00 
 120    4:50   0.00   48.6    94   10.8   148    13.3   965.2    0.00 
 120    5:00   0.00   48.5    94    9.9   152    12.3   965.2    0.00 
 120    5:10   0.00   48.4    94    8.7   158    11.8   965.3    0.00 
 120    5:20   0.00   48.4    95    7.1   151    10.6   965.4    0.00 
 120    5:30   0.01   48.4    95    6.0   131     9.1   965.7    0.00 
 120    5:40   0.03   48.7    95    6.8    80     9.9   965.8    0.00 
 120    5:50   0.06   48.8    95    7.3    44     9.5   965.9    0.00 
 120    6:00   0.09   48.9    95    7.1    45     8.6   965.9    0.00 
 120    6:10   0.12   49.3    95    6.5    38     8.3   965.9    0.00 
 120    6:20   0.15   49.9    94    7.5    39     9.1   966.0    0.00 
 120    6:30   0.18   50.4    93    6.2    46     7.9   966.1    0.00 
 120    6:40   0.21   51.2    92    5.2    43     8.1   966.3    0.00 
 120    6:50   0.25   51.8    90    5.3    44     7.5   966.3    0.00 
 120    7:00   0.28   52.4    88    5.1    45     8.3   966.4    0.00 
 120    7:10   0.32   52.9    87    3.8    46     7.0   966.6    0.00 
 120    7:20   0.36   53.5    86    2.9    52     5.5   966.7    0.00 
 120    7:30   0.22   53.9    85    1.6    62     4.5   967.0    0.00 
 120    7:40   0.16   54.1    85    1.4   106     4.1   967.0    0.00 
 120    7:50   0.22   54.8    83    2.6    78     4.9   967.0    0.00 
 120    8:00   0.32   55.5    82    3.1   128     8.0   967.1    0.00 
 120    8:10   0.29   56.8    78    4.1   130     7.6   967.2    0.00 
 120    8:20   0.51   58.0    76    4.9   130     9.6   967.2    0.00 
 120    8:30   0.61   59.7    72    5.2   122     9.3   967.2    0.00 
 120    8:40   0.62   60.3    70    6.1   129     9.4   967.2    0.00 
 120    8:50   0.62   60.3    69    5.1   135     8.6   967.3    0.00 
 120    9:00   0.68   60.3    70    5.1   141     9.1   967.4    0.00 
 120    9:10   0.66   60.6    69    4.4   146     9.8   967.5    0.00 
 120    9:20   0.77   59.9    71    5.7   133     8.5   967.5    0.00 
 120    9:30   0.83   61.2    68    4.4   132     8.4   967.4    0.00 
 120    9:40   0.61   63.2    64    4.9   122     8.8   967.5    0.00 
 120    9:50   0.51   62.3    65    4.4   105     7.4   967.5    0.00 
 120   10:00   0.58   62.6    64    3.6    88     7.2   967.4    0.00 
 120   10:10   0.65   63.3    63    3.6    77     6.2   967.3    0.00 
 120   10:20   0.58   62.7    64    4.1    70     7.2   967.4    0.00 
 120   10:30   0.48   60.8    67    4.0    73     7.0   967.4    0.00 
 120   10:40   0.56   61.2    66    4.2    96     6.9   967.5    0.00 
 120   10:50   0.58   61.8    64    3.4    88     6.9   967.5    0.00 
 120   11:00   0.84   62.9    63    4.0   135     8.3   967.4    0.00 
 120   11:10   0.96   65.9    58    4.5   116     8.6   967.1    0.00 
 120   11:20   0.96   66.1    57    4.2   130     8.8   967.0    0.00 
 120   11:30   0.99   66.0    57    3.1   131     7.7   966.9    0.00 
 120   11:40   0.96   65.7    57    2.2   115     6.0   966.9    0.00 
 120   11:50   0.95   65.1    58    3.8    98     8.5   966.8    0.00 
 120   12:00   0.97   65.4    57    3.8    85     8.8   966.8    0.00 
 120   12:10   0.98   67.3    54    4.0    82    10.3   966.6    0.00 
 120   12:20   0.95   66.9    55    4.5    75     9.2   966.5    0.00 
 120   12:30   0.96   66.0    56    4.7    76     8.6   966.5    0.00 
 120   12:40   0.95   67.0    54    4.4    54     9.6   966.4    0.00 
 120   12:50   0.94   65.1    56    5.7    44    10.7   966.3    0.00 
 120   13:00   0.93   64.1    58    5.0    54    11.9   966.2    0.00 
 120   13:10   0.92   64.7    56    3.6    46     8.6   966.2    0.00 
 120   13:20   0.91   65.9    54    5.3    60    10.2   966.2    0.00 
 120   13:30   0.90   66.0    54    3.6    60     7.7   966.0    0.00 
 120   13:40   0.88   68.4    50    3.7    52     7.7   965.8    0.00 
 120   13:50   0.86   68.8    49    5.0    61     7.9   965.7    0.00 
 120   14:00   0.84   69.2    48    4.1    60     7.8   965.6    0.00 
 120   14:10   0.82   69.0    49    3.8    99     8.6   965.5    0.00 
 120   14:20   0.80   69.0    50    3.5   126     8.0   965.4    0.00 
 120   14:30   0.78   68.5    50    4.0   138     8.3   965.3    0.00 
 120   14:40   0.74   67.0    53    4.6   167     8.8   965.2    0.00 
 120   14:50   0.73   65.2    55    4.2   168     9.0   965.0    0.00 
 120   15:00   0.70   65.2    54    5.6   212    12.1   964.9    0.00 
 120   15:10   0.67   63.7    54    7.6   230    12.3   964.7    0.00 
 120   15:20   0.64   64.0    54    5.8   234    10.8   964.5    0.00 
 120   15:30   0.61   63.5    55    6.8   245    14.4   964.3    0.00 
 120   15:40   0.57   62.0    58    9.7   239    13.2   964.1    0.00 
 120   15:50   0.54   60.4    61   10.3   240    14.5   964.0    0.00 
 120   16:00   0.51   59.7    62    9.7   238    14.6   964.0    0.00 
 120   16:10   0.47   59.2    63    9.0   237    12.9   963.8    0.00 
 120   16:20   0.44   60.5    62    4.8   257     9.9   963.9    0.00 
 120   16:30   0.41   64.1    55    2.0    29     6.1   963.9    0.00 
 120   16:40   0.37   63.2    56    4.9   240    10.8   963.8    0.00 
 120   16:50   0.33   59.4    63    9.1   237    14.2   963.6    0.00 
 120   17:00   0.30   57.5    67    9.8   239    14.5   963.5    0.00 
 120   17:10   0.26   56.8    68    8.5   239    13.2   963.3    0.00 
 120   17:20   0.23   56.7    69    7.5   236    11.4   963.2    0.00 
 120   17:30   0.19   56.1    70    7.6   240    12.9   963.3    0.00 
 120   17:40   0.16   54.7    72    9.2   236    13.7   963.1    0.00 
 120   17:50   0.13   54.5    72    7.7   234    10.7   963.1    0.00 
 120   18:00   0.10   54.4    72    3.5   234     7.3   963.0    0.00 
 120   18:10   0.08   54.8    71    3.1   241     6.8   962.9    0.00 
 120   18:20   0.05   55.1    69    3.3   143     6.1   962.9    0.00 
 120   18:30   0.02   54.1    70    3.5   189     5.9   962.8    0.00 
 120   18:40   0.01   51.8    73    5.4   208     8.2   962.8    0.00 
 120   18:50   0.00   50.8    74    6.3   197     9.3   962.7    0.00 
 120   19:00   0.00   50.8    74    6.3   183     8.5   962.6    0.00 
 120   19:10   0.00   50.9    74    5.5   172     7.3   962.5    0.00 
 120   19:20   0.00   51.3    71    3.1   129     6.4   962.5    0.00 
 120   19:30   0.00   51.2    72    3.6   146     6.4   962.5    0.00 
 120   19:40   0.00   50.8    74    3.9   141     5.9   962.5    0.00 
 120   19:50   0.00   50.8    71    3.7    74    15.0   962.6    0.00 
 120   20:00   0.00   52.6    62    5.4    56    10.2   962.6    0.00 
 120   20:10   0.00   52.4    62    5.5   354    17.0   962.6    0.00 
 120   20:20   0.00   53.0    62    6.1   337    17.6   962.7    0.00 
 120   20:30   0.00   52.3    64    3.7   354    16.1   962.7    0.00 
 120   20:40   0.00   51.8    66    2.4   305     7.1   962.8    0.00 
 120   20:50   0.00   51.9    64    3.0     3    13.1   962.7    0.00 
 120   21:00   0.00   51.5    64    3.6     9    12.0   962.6    0.00 
 120   21:10   0.00   54.4    52    9.6   329    21.0   962.5    0.00 
 120   21:20   0.00   54.4    56    3.2   110     6.8   962.6    0.00 
 120   21:30   0.00   53.3    56    6.0   331    13.7   962.6    0.00 

Return to Valley Peak, Santa Cruz Island Reserve graphs page.


Western Regional Climate Center,wrcc@dri.edu